Arthur, North Dakota
Current Conditions -  °F | °C
As of 10:53 PM on Friday 24 Oct 2014 (Local Time) from KFAR Reporting Station
Clear Clear  
Wind Chill: 50°   Ceiling: Unl
Heat Index: 50°   Visibility: 10mi
Dew Point: 32°   Wind: 10mph
Humidity: 50%   Direction: 270°W
Pressure: 29.93"   Gusts: NA
Location:  47.1°N, 97.22°W
Report Text: KFAR 250353Z 27009KT 10SM CLR 10/00 A2993 RMK AO2 SLP138 T01000000
Loading
Personal Weather Stations






























Interactive Weather Map
Tropical Storm Tracking
New forecast layout! Learn more

10-Day Weather Forecast

Advertisements
Track Severe Weather on mobile